Time;durP1;ratioP1;P1;durP2;ratioP2;P2;SDS_P1;SDS_P2;PMS_P1;PMS_P2;Temp;Humidity;BMP_temperature;BMP_pressure;BME280_temperature;BME280_humidity;BME280_pressure;Samples;Min_cycle;Max_cycle;Signal;HPM_P1;HPM_P2
2022/05/08 00:01:43;;;;;;;17.23;3.35;;;5.70;99.90;;;;;;5059709;28;20029;-81
2022/05/08 00:04:08;;;;;;;18.23;3.00;;;5.70;99.90;;;;;;5068418;28;20049;-81
2022/05/08 00:06:34;;;;;;;15.43;3.28;;;5.70;99.90;;;;;;5072025;28;20024;-81
2022/05/08 00:09:00;;;;;;;18.40;3.13;;;5.60;99.90;;;;;;5081035;28;20025;-81
2022/05/08 00:11:28;;;;;;;11.38;3.00;;;5.60;99.90;;;;;;5080297;28;20030;-81
2022/05/08 00:13:54;;;;;;;17.15;3.45;;;5.60;99.90;;;;;;5079369;28;20021;-81
2022/05/08 00:16:20;;;;;;;14.88;3.40;;;5.60;99.90;;;;;;5077220;28;20027;-81
2022/05/08 00:18:45;;;;;;;13.75;3.05;;;5.60;99.90;;;;;;5079179;28;20012;-81
2022/05/08 00:21:11;;;;;;;20.75;4.13;;;5.70;99.90;;;;;;5080916;28;20027;-82
2022/05/08 00:23:36;;;;;;;17.08;2.78;;;5.60;99.90;;;;;;5078441;28;20568;-82
2022/05/08 00:26:04;;;;;;;17.35;3.45;;;5.60;99.90;;;;;;5077048;28;20024;-82
2022/05/08 00:28:30;;;;;;;16.15;3.67;;;5.60;99.90;;;;;;5077443;28;20107;-82
2022/05/08 00:30:55;;;;;;;13.88;2.90;;;5.60;99.90;;;;;;5062119;28;20098;-82
2022/05/08 00:33:21;;;;;;;12.40;3.28;;;5.60;99.90;;;;;;5057545;28;20029;-82
2022/05/08 00:35:46;;;;;;;17.55;3.58;;;5.60;99.90;;;;;;5057711;28;20033;-81
2022/05/08 00:38:12;;;;;;;16.98;3.58;;;5.50;99.90;;;;;;5040992;28;20040;-82
2022/05/08 00:40:37;;;;;;;19.10;4.25;;;5.50;99.90;;;;;;5058197;28;20078;-81
2022/05/08 00:43:26;;;;;;;17.40;3.80;;;5.40;99.90;;;;;;5072317;28;20082;-81
2022/05/08 00:45:52;;;;;;;10.63;2.70;;;5.30;99.90;;;;;;5078180;28;20071;-82
2022/05/08 00:48:18;;;;;;;12.48;4.00;;;5.40;99.90;;;;;;5078006;28;20261;-81
2022/05/08 00:50:44;;;;;;;14.73;3.28;;;5.50;99.90;;;;;;5076943;28;20084;-81
2022/05/08 00:53:10;;;;;;;13.95;3.83;;;5.40;99.90;;;;;;5074884;28;20516;-81
2022/05/08 00:55:36;;;;;;;14.45;3.05;;;5.40;99.90;;;;;;5076403;28;20028;-81
2022/05/08 00:58:02;;;;;;;16.38;3.38;;;5.40;99.90;;;;;;5078583;28;20044;-81
2022/05/08 01:00:28;;;;;;;16.08;3.53;;;5.30;99.90;;;;;;5076779;28;20397;-81
2022/05/08 01:02:57;;;;;;;14.88;3.47;;;5.30;99.90;;;;;;5077423;28;20028;-81
2022/05/08 01:05:23;;;;;;;17.83;3.60;;;5.40;99.90;;;;;;5076715;28;20499;-81
2022/05/08 01:07:49;;;;;;;11.23;3.30;;;5.30;99.90;;;;;;5077268;28;20020;-81
2022/05/08 01:10:15;;;;;;;16.33;3.70;;;5.30;99.90;;;;;;5077146;28;20029;-81
2022/05/08 01:12:44;;;;;;;14.40;3.30;;;5.30;99.90;;;;;;5087058;22;20037;-86
2022/05/08 01:15:18;;;;;;;14.98;3.08;;;5.30;99.90;;;;;;5022520;28;20357;-83
2022/05/08 01:17:45;;;;;;;11.25;3.30;;;5.30;99.90;;;;;;5041752;28;20017;-84
2022/05/08 01:20:11;;;;;;;12.13;3.33;;;5.30;99.90;;;;;;5045692;28;20021;-83
2022/05/08 01:22:37;;;;;;;18.58;4.47;;;5.30;99.90;;;;;;5039759;28;20057;-83
2022/05/08 01:25:04;;;;;;;13.13;3.53;;;5.20;99.90;;;;;;5037212;28;20063;-84
2022/05/08 01:27:30;;;;;;;13.48;3.30;;;5.10;99.90;;;;;;5036919;28;20033;-84
2022/05/08 01:29:56;;;;;;;13.13;3.45;;;5.10;99.90;;;;;;5037200;28;20033;-84
2022/05/08 01:32:21;;;;;;;16.95;3.50;;;5.10;99.90;;;;;;5039332;28;20658;-84
2022/05/08 01:34:47;;;;;;;13.75;3.70;;;5.00;99.90;;;;;;5056432;28;20025;-84
2022/05/08 01:37:13;;;;;;;18.42;3.50;;;5.00;99.90;;;;;;5039916;28;20021;-84
2022/05/08 01:39:39;;;;;;;10.45;3.00;;;5.00;99.90;;;;;;5040559;28;20591;-84
2022/05/08 01:42:06;;;;;;;16.42;4.88;;;5.00;99.90;;;;;;5056918;28;20423;-84
2022/05/08 01:44:32;;;;;;;15.85;3.75;;;4.90;99.90;;;;;;5039927;28;20033;-85
2022/05/08 01:49:42;;;;;;;11.07;3.42;;;4.90;99.90;;;;;;5055160;28;20515;-84
2022/05/08 01:52:08;;;;;;;13.85;3.97;;;5.00;99.90;;;;;;5054454;28;20021;-84
2022/05/08 01:54:34;;;;;;;19.23;3.83;;;5.10;99.90;;;;;;5057040;28;20116;-84
2022/05/08 01:56:59;;;;;;;16.85;3.65;;;5.00;99.90;;;;;;5062677;28;20029;-85
2022/05/08 01:59:25;;;;;;;16.70;3.92;;;5.00;99.90;;;;;;5059612;28;20021;-84
2022/05/08 02:01:51;;;;;;;16.90;3.70;;;4.90;99.90;;;;;;5042804;28;20071;-84
2022/05/08 02:04:17;;;;;;;19.13;3.60;;;4.90;99.90;;;;;;5034580;28;20529;-85
2022/05/08 02:06:43;;;;;;;16.27;2.78;;;4.90;99.90;;;;;;5024300;28;20069;-84
2022/05/08 02:09:09;;;;;;;19.65;3.58;;;5.00;99.90;;;;;;5025789;28;20511;-84
2022/05/08 02:11:34;;;;;;;14.60;3.38;;;5.00;99.90;;;;;;5041700;28;20021;-84
2022/05/08 02:14:01;;;;;;;13.23;3.03;;;4.90;99.90;;;;;;5019950;28;20058;-84
2022/05/08 02:16:27;;;;;;;10.23;3.80;;;4.80;99.90;;;;;;5020731;28;20022;-84
2022/05/08 02:18:52;;;;;;;12.77;4.38;;;4.80;99.90;;;;;;5025953;28;20020;-84
2022/05/08 02:21:18;;;;;;;20.73;3.83;;;4.60;99.90;;;;;;5031231;28;20018;-83
2022/05/08 02:23:43;;;;;;;16.13;3.72;;;4.70;99.90;;;;;;5042700;28;20485;-84
2022/05/08 02:26:09;;;;;;;14.57;4.10;;;4.60;99.90;;;;;;5041245;28;20025;-84
2022/05/08 02:28:34;;;;;;;11.73;3.50;;;4.70;99.90;;;;;;5043006;28;20028;-84
2022/05/08 02:31:00;;;;;;;15.02;3.50;;;4.70;99.90;;;;;;5042840;28;20097;-84
2022/05/08 02:33:25;;;;;;;20.92;4.18;;;4.60;99.90;;;;;;5040731;28;20033;-84
2022/05/08 02:35:51;;;;;;;18.77;3.60;;;4.60;99.90;;;;;;5042425;28;20045;-84
2022/05/08 02:38:17;;;;;;;11.70;3.50;;;4.50;99.90;;;;;;5044373;28;20025;-84
2022/05/08 02:40:43;;;;;;;12.27;3.30;;;4.40;99.90;;;;;;5044338;28;20033;-84
2022/05/08 02:43:08;;;;;;;14.68;3.50;;;4.30;99.90;;;;;;5039946;28;20033;-85
2022/05/08 02:45:34;;;;;;;13.43;3.97;;;4.30;99.90;;;;;;5036362;28;20030;-84
2022/05/08 02:48:14;;;;;;;15.73;3.92;;;4.20;99.90;;;;;;5032974;28;20022;-84
2022/05/08 02:50:39;;;;;;;16.95;3.97;;;4.20;99.90;;;;;;5068624;28;20030;-84
2022/05/08 02:53:05;;;;;;;16.10;3.38;;;4.10;99.90;;;;;;5038836;28;20033;-84
2022/05/08 02:58:32;;;;;;;14.07;3.97;;;4.10;99.90;;;;;;5043513;28;20105;-84
2022/05/08 03:00:58;;;;;;;14.88;3.53;;;4.00;99.90;;;;;;5037012;28;20029;-85
2022/05/08 03:03:23;;;;;;;22.40;4.35;;;4.00;99.90;;;;;;5042958;28;20021;-85
2022/05/08 03:05:49;;;;;;;16.85;3.60;;;3.90;99.90;;;;;;5045256;28;20097;-85
2022/05/08 03:08:17;;;;;;;16.35;3.38;;;4.00;99.90;;;;;;5065241;28;20028;-85
2022/05/08 03:13:28;;;;;;;14.77;4.05;;;4.10;99.90;;;;;;5063092;28;20056;-85
2022/05/08 03:15:53;;;;;;;13.57;3.22;;;4.00;99.90;;;;;;5065442;28;20626;-85
2022/05/08 03:18:19;;;;;;;11.15;3.15;;;4.00;99.90;;;;;;5067417;28;20017;-85
2022/05/08 03:20:45;;;;;;;20.92;4.35;;;4.10;99.90;;;;;;5066889;28;20352;-85
2022/05/08 03:23:10;;;;;;;12.13;3.40;;;4.10;99.90;;;;;;5045600;28;20052;-85
2022/05/08 03:25:36;;;;;;;13.85;3.78;;;4.00;99.90;;;;;;5045390;28;20067;-85
2022/05/08 03:28:02;;;;;;;8.35;2.83;;;4.00;99.90;;;;;;5052508;28;20503;-85
2022/05/08 03:30:28;;;;;;;14.07;3.13;;;4.10;99.90;;;;;;5042918;28;20050;-85
2022/05/08 03:32:56;;;;;;;15.88;3.30;;;4.10;99.90;;;;;;5043644;28;20111;-85
2022/05/08 03:35:21;;;;;;;19.52;3.65;;;3.90;99.90;;;;;;5066255;28;20029;-85
2022/05/08 03:37:47;;;;;;;11.43;3.00;;;4.00;99.90;;;;;;5047531;28;20042;-85
2022/05/08 03:40:12;;;;;;;12.85;4.28;;;4.00;99.90;;;;;;5065005;28;20020;-86
2022/05/08 03:42:38;;;;;;;13.75;3.63;;;3.90;99.90;;;;;;5051279;28;20005;-86
2022/05/08 03:45:04;;;;;;;17.10;3.42;;;4.00;99.90;;;;;;5054477;28;20124;-85
2022/05/08 03:47:29;;;;;;;10.93;2.83;;;4.40;99.90;;;;;;5061466;28;20289;-85
2022/05/08 03:49:55;;;;;;;12.70;3.55;;;4.50;99.90;;;;;;5062112;28;20040;-85
2022/05/08 03:52:20;;;;;;;11.75;3.05;;;4.40;99.90;;;;;;5062554;28;20075;-85
2022/05/08 03:54:46;;;;;;;14.13;2.92;;;4.30;99.90;;;;;;5043948;28;20083;-85
2022/05/08 03:57:11;;;;;;;9.27;2.70;;;4.20;99.90;;;;;;5044388;28;20031;-85
2022/05/08 03:59:37;;;;;;;8.82;2.47;;;4.20;99.90;;;;;;5045502;28;20036;-85
2022/05/08 04:02:02;;;;;;;13.13;2.75;;;4.20;99.90;;;;;;5060305;28;20025;-85
2022/05/08 04:04:28;;;;;;;10.70;3.00;;;4.20;99.90;;;;;;5047670;28;20029;-87
2022/05/08 04:06:53;;;;;;;9.65;2.75;;;4.20;99.90;;;;;;5048429;28;20100;-86
2022/05/08 04:09:19;;;;;;;8.98;2.42;;;4.20;99.90;;;;;;5056227;28;20052;-85
2022/05/08 04:11:44;;;;;;;9.20;2.83;;;4.40;99.90;;;;;;5058008;28;20033;-85
2022/05/08 04:14:11;;;;;;;9.35;3.20;;;4.50;99.90;;;;;;5070555;28;20326;-86
2022/05/08 04:16:37;;;;;;;12.05;3.85;;;4.60;99.90;;;;;;5047006;28;20009;-86
2022/05/08 04:19:02;;;;;;;15.43;3.25;;;4.60;99.90;;;;;;5072676;28;20043;-86
2022/05/08 04:21:28;;;;;;;9.23;2.70;;;4.70;99.90;;;;;;5068112;28;21424;-85
2022/05/08 04:26:37;;;;;;;5.65;2.50;;;5.10;99.90;;;;;;5069514;28;20063;-85
2022/05/08 04:29:03;;;;;;;7.93;2.40;;;5.20;99.90;;;;;;5069041;28;20013;-85
2022/05/08 04:31:29;;;;;;;13.65;2.85;;;5.30;99.90;;;;;;5075962;28;20041;-85
2022/05/08 04:33:55;;;;;;;10.60;2.30;;;5.40;99.90;;;;;;5059308;28;20020;-85
2022/05/08 04:36:20;;;;;;;9.65;2.55;;;5.50;99.90;;;;;;5077050;28;20044;-84
2022/05/08 04:38:46;;;;;;;8.40;3.03;;;5.70;99.90;;;;;;5069861;28;20098;-85
2022/05/08 04:41:12;;;;;;;11.15;2.60;;;5.90;99.90;;;;;;5051388;28;20043;-85
2022/05/08 04:43:38;;;;;;;7.97;2.58;;;6.10;99.90;;;;;;5057899;28;20013;-85
2022/05/08 04:46:05;;;;;;;10.15;2.47;;;6.20;99.90;;;;;;5057880;28;20025;-85
2022/05/08 04:48:30;;;;;;;8.18;2.38;;;6.30;99.90;;;;;;5056743;28;20025;-85
2022/05/08 04:50:56;;;;;;;8.68;2.22;;;6.60;99.90;;;;;;5075154;28;20026;-85
2022/05/08 04:53:21;;;;;;;7.70;2.25;;;6.80;99.90;;;;;;5075527;28;20029;-85
2022/05/08 04:55:48;;;;;;;8.52;2.10;;;6.90;99.90;;;;;;5066760;28;20044;-85
2022/05/08 04:58:14;;;;;;;6.90;2.63;;;7.10;99.90;;;;;;5057682;28;20033;-85
2022/05/08 05:00:39;;;;;;;7.22;2.00;;;7.30;99.90;;;;;;5050104;28;20077;-85
2022/05/08 05:03:05;;;;;;;8.25;2.10;;;7.40;73.50;;;;;;5067467;28;20537;-85
2022/05/08 05:05:30;;;;;;;8.63;2.70;;;7.50;37.20;;;;;;5046270;28;20021;-85
2022/05/08 05:07:56;;;;;;;6.40;1.95;;;7.90;11.20;;;;;;5062313;28;20044;-85
2022/05/08 05:10:22;;;;;;;8.38;2.20;;;9.60;1.00;;;;;;5047418;28;20071;-85
2022/05/08 05:12:48;;;;;;;5.57;2.00;;;12.60;99.90;;;;;;5043929;28;20075;-85
2022/05/08 05:15:13;;;;;;;7.25;1.95;;;14.20;99.90;;;;;;5034533;28;20030;-85
2022/05/08 05:17:40;;;;;;;8.65;2.10;;;14.00;99.90;;;;;;5031862;28;20013;-85
2022/05/08 05:20:06;;;;;;;8.15;2.00;;;12.60;99.90;;;;;;5028907;28;20412;-84
2022/05/08 05:22:32;;;;;;;6.18;1.90;;;11.50;99.90;;;;;;5034054;28;20017;-85
2022/05/08 05:24:59;;;;;;;7.18;2.20;;;12.50;99.90;;;;;;5052529;28;20145;-85
2022/05/08 05:27:25;;;;;;;7.47;1.90;;;13.20;99.90;;;;;;5020270;28;20105;-85
2022/05/08 05:29:51;;;;;;;5.85;1.52;;;12.50;99.90;;;;;;5012890;28;20033;-84
2022/05/08 05:32:17;;;;;;;9.43;2.55;;;11.90;99.90;;;;;;5011524;28;20471;-85
2022/05/08 05:34:43;;;;;;;8.68;1.98;;;11.70;99.90;;;;;;5026136;28;20053;-85
2022/05/08 05:37:08;;;;;;;7.25;1.70;;;11.50;99.90;;;;;;5022551;28;20033;-87
2022/05/08 05:39:34;;;;;;;3.90;1.48;;;11.40;99.90;;;;;;5008255;28;20085;-87
2022/05/08 05:41:59;;;;;;;6.10;1.65;;;11.30;99.90;;;;;;5022457;28;20504;-88
2022/05/08 05:44:26;;;;;;;7.82;2.15;;;11.20;99.90;;;;;;5023686;28;20034;-87
2022/05/08 05:49:39;;;;;;;7.97;1.80;;;11.20;99.90;;;;;;5034814;28;20041;-87
2022/05/08 05:52:07;;;;;;;6.97;1.60;;;11.50;99.90;;;;;;5025106;28;20022;-87
2022/05/08 05:54:33;;;;;;;5.72;1.48;;;11.90;99.90;;;;;;5015053;28;20546;-87
2022/05/08 05:56:59;;;;;;;2.42;1.73;;;13.30;99.90;;;;;;5019204;28;20026;-88
2022/05/08 05:59:24;;;;;;;6.53;2.25;;;14.40;99.90;;;;;;5020453;28;20105;-87
2022/05/08 06:01:50;;;;;;;3.28;1.63;;;14.60;99.90;;;;;;5033035;28;20026;-88
2022/05/08 06:04:16;;;;;;;4.95;1.50;;;13.60;99.90;;;;;;5033265;28;20048;-88
2022/05/08 06:06:41;;;;;;;3.53;1.42;;;12.70;99.90;;;;;;5031784;28;20045;-88
2022/05/08 06:09:07;;;;;;;5.32;1.83;;;12.60;99.90;;;;;;5031558;28;20026;-87
2022/05/08 06:11:33;;;;;;;5.70;1.52;;;12.80;99.90;;;;;;5029585;28;20026;-89
2022/05/08 06:13:59;;;;;;;5.00;1.52;;;13.40;99.90;;;;;;5049169;28;20060;-85
2022/05/08 06:16:24;;;;;;;5.93;1.52;;;12.90;99.90;;;;;;5054629;28;20013;-85
2022/05/08 06:18:50;;;;;;;3.78;1.80;;;13.40;99.90;;;;;;5067737;28;20078;-85
2022/05/08 06:21:15;;;;;;;5.50;1.73;;;14.20;99.90;;;;;;5064666;28;20021;-85
2022/05/08 06:23:41;;;;;;;4.45;1.50;;;16.30;99.90;;;;;;5061592;28;20009;-85
2022/05/08 06:26:06;;;;;;;5.63;1.80;;;15.90;99.90;;;;;;5064682;28;20056;-85
2022/05/08 06:28:32;;;;;;;7.65;1.77;;;15.10;99.90;;;;;;5062022;28;20029;-85
2022/05/08 06:30:58;;;;;;;7.18;1.83;;;17.40;99.90;;;;;;5069294;28;20016;-85
2022/05/08 06:33:24;;;;;;;4.63;1.52;;;16.30;99.90;;;;;;5058026;28;20089;-86
2022/05/08 06:35:49;;;;;;;4.82;1.45;;;15.30;99.90;;;;;;5064298;28;20085;-85
2022/05/08 06:38:15;;;;;;;5.30;1.48;;;15.00;99.90;;;;;;5059379;28;20024;-85
2022/05/08 06:40:43;;;;;;;4.32;1.10;;;16.50;99.90;;;;;;5061615;28;20016;-85
2022/05/08 06:43:09;;;;;;;3.28;1.23;;;15.70;99.90;;;;;;5058711;28;20041;-85
2022/05/08 06:45:35;;;;;;;5.43;1.30;;;14.80;99.90;;;;;;5042903;28;20089;-85
2022/05/08 06:48:01;;;;;;;5.80;1.55;;;14.10;99.90;;;;;;5057082;28;20021;-86
2022/05/08 06:50:29;;;;;;;4.55;0.80;;;14.00;99.90;;;;;;5041255;28;20021;-85
2022/05/08 06:52:55;;;;;;;6.32;1.60;;;13.50;99.90;;;;;;5059867;28;20009;-85
2022/05/08 06:55:21;;;;;;;9.15;1.20;;;13.10;99.90;;;;;;5059030;28;20037;-85
2022/05/08 06:57:47;;;;;;;5.28;1.10;;;13.20;99.90;;;;;;5050493;28;20025;-85
2022/05/08 07:02:57;;;;;;;1.52;0.60;;;13.30;99.90;;;;;;5039919;28;20043;-87
2022/05/08 07:05:23;;;;;;;3.20;0.75;;;13.10;99.90;;;;;;5033103;28;20033;-87
2022/05/08 07:07:48;;;;;;;2.47;0.85;;;13.30;99.90;;;;;;5016813;28;20096;-87
2022/05/08 07:10:14;;;;;;;4.00;1.05;;;13.00;99.90;;;;;;5067292;28;20582;-87
2022/05/08 07:12:39;;;;;;;8.55;1.63;;;13.20;99.90;;;;;;5053657;28;20100;-87
2022/05/08 07:15:06;;;;;;;2.40;0.85;;;19.40;99.90;;;;;;5069143;28;20127;-87
2022/05/08 07:17:32;;;;;;;3.95;1.20;;;17.70;99.90;;;;;;5064701;28;20025;-87
2022/05/08 07:19:58;;;;;;;10.13;1.50;;;17.70;99.90;;;;;;5071749;28;20063;-87
2022/05/08 07:22:23;;;;;;;3.10;1.08;;;22.60;99.90;;;;;;5075218;28;20021;-87
2022/05/08 07:24:49;;;;;;;3.95;1.38;;;22.70;99.90;;;;;;5056003;28;20061;-87
2022/05/08 07:27:15;;;;;;;2.70;0.90;;;23.40;99.90;;;;;;5054233;28;20024;-87
2022/05/08 07:29:44;;;;;;;5.18;0.88;;;24.00;99.90;;;;;;5052157;28;20021;-87
2022/05/08 07:32:11;;;;;;;6.38;1.15;;;24.40;99.90;;;;;;5054250;28;20050;-87
2022/05/08 07:37:21;;;;;;;5.63;1.08;;;25.80;99.90;;;;;;5070377;28;20035;-87
2022/05/08 07:39:46;;;;;;;3.80;0.90;;;26.50;99.90;;;;;;5068286;28;20480;-88
2022/05/08 07:42:12;;;;;;;2.35;0.68;;;25.20;99.90;;;;;;5050763;28;20047;-87
2022/05/08 07:44:38;;;;;;;4.45;1.20;;;24.90;99.90;;;;;;5051815;28;20093;-88
2022/05/08 07:47:04;;;;;;;1.60;0.90;;;24.40;99.90;;;;;;5070909;28;20025;-87
2022/05/08 07:49:29;;;;;;;4.80;1.08;;;25.80;99.90;;;;;;5052414;28;20064;-87
2022/05/08 07:51:55;;;;;;;2.50;0.98;;;25.30;99.90;;;;;;5052771;28;20024;-87
2022/05/08 07:54:21;;;;;;;4.97;1.20;;;25.50;99.90;;;;;;5052565;28;20021;-86
2022/05/08 07:56:46;;;;;;;4.25;0.98;;;24.40;99.90;;;;;;5048532;28;20040;-87
2022/05/08 07:59:12;;;;;;;3.70;1.20;;;24.20;99.90;;;;;;5061914;28;20500;-87
2022/05/08 08:01:38;;;;;;;4.70;1.20;;;27.20;99.90;;;;;;5036597;28;20028;-87
2022/05/08 08:04:08;;;;;;;4.20;1.17;;;23.90;99.90;;;;;;5054719;28;20029;-87
2022/05/08 08:06:34;;;;;;;4.28;1.20;;;22.60;99.90;;;;;;5057847;28;20021;-87
2022/05/08 08:09:00;;;;;;;4.70;1.63;;;22.00;99.90;;;;;;5049558;28;20036;-87
2022/05/08 08:11:25;;;;;;;3.72;1.20;;;22.90;99.90;;;;;;5052646;28;20025;-87
2022/05/08 08:13:51;;;;;;;3.20;1.00;;;27.00;99.90;;;;;;5049382;28;20049;-87
2022/05/08 08:16:17;;;;;;;6.40;0.90;;;23.90;99.90;;;;;;5041457;28;20021;-86
2022/05/08 08:18:44;;;;;;;3.67;0.80;;;26.00;99.90;;;;;;5065585;28;20027;-86
2022/05/08 08:21:14;;;;;;;5.60;0.90;;;28.00;99.90;;;;;;5064915;28;20025;-85
2022/05/08 08:23:42;;;;;;;3.83;0.63;;;30.10;99.90;;;;;;5051746;28;20037;-86
2022/05/08 08:26:09;;;;;;;4.60;1.10;;;28.60;99.90;;;;;;5030305;28;20037;-85
2022/05/08 08:28:35;;;;;;;2.47;0.70;;;24.70;99.90;;;;;;5046754;28;20341;-86
2022/05/08 08:31:00;;;;;;;4.75;0.90;;;26.10;99.90;;;;;;5049034;28;20047;-86
2022/05/08 08:33:26;;;;;;;2.53;0.60;;;28.80;99.90;;;;;;5048265;28;20033;-86
2022/05/08 08:35:52;;;;;;;2.72;0.75;;;30.10;99.90;;;;;;5040906;28;20022;-85
2022/05/08 08:38:18;;;;;;;7.78;1.05;;;31.40;99.90;;;;;;5044061;28;20034;-87
2022/05/08 08:40:48;;;;;;;2.13;0.85;;;28.90;99.90;;;;;;5025662;28;20025;-85
2022/05/08 08:43:18;;;;;;;1.75;0.57;;;26.60;99.90;;;;;;5036716;28;20035;-88
2022/05/08 08:48:34;;;;;;;4.15;0.90;;;26.50;99.90;;;;;;5053565;28;20114;-83
2022/05/08 08:51:01;;;;;;;4.22;1.05;;;27.50;99.90;;;;;;5052772;28;20017;-84
2022/05/08 08:53:28;;;;;;;4.85;1.25;;;27.60;99.90;;;;;;5051954;28;20488;-83
2022/05/08 08:56:01;;;;;;;3.42;1.00;;;28.50;99.90;;;;;;5058413;28;20097;-83
2022/05/08 08:58:26;;;;;;;5.20;1.20;;;28.20;99.90;;;;;;5059965;28;20073;-83
2022/05/08 09:00:52;;;;;;;2.92;0.82;;;26.10;99.90;;;;;;5066326;28;20025;-84
2022/05/08 09:03:25;;;;;;;5.50;1.30;;;26.70;99.90;;;;;;5052191;28;20032;-87
2022/05/08 09:05:53;;;;;;;5.72;1.08;;;26.60;99.90;;;;;;5051264;28;20446;-84
2022/05/08 09:08:45;;;;;;;4.68;0.90;;;24.30;99.90;;;;;;5052680;28;20086;-86
2022/05/08 09:11:13;;;;;;;0.68;0.50;;;24.70;99.90;;;;;;5050055;28;20041;-84
2022/05/08 09:13:52;;;;;;;1.75;0.80;;;21.30;99.90;;;;;;5023743;28;20040;-85
2022/05/08 09:16:17;;;;;;;4.53;1.15;;;19.60;99.90;;;;;;5031736;28;20032;-87
2022/05/08 09:18:48;;;;;;;4.55;1.20;;;23.80;99.90;;;;;;5030986;28;20029;-84
2022/05/08 09:24:13;;;;;;;6.45;1.27;;;26.20;99.90;;;;;;5031447;28;20103;-85
2022/05/08 09:26:39;;;;;;;4.90;1.17;;;25.10;99.90;;;;;;5014018;28;20017;-86
2022/05/08 09:29:05;;;;;;;3.40;1.17;;;28.20;99.90;;;;;;5028612;28;20029;-86
2022/05/08 09:31:43;;;;;;;6.40;1.27;;;25.80;99.90;;;;;;5032886;28;20159;-86
2022/05/08 09:34:09;;;;;;;5.65;1.73;;;26.10;99.90;;;;;;5037273;28;20021;-88
2022/05/08 09:36:35;;;;;;;3.22;0.85;;;27.50;99.90;;;;;;5038372;28;20021;-86
2022/05/08 09:39:02;;;;;;;3.30;0.88;;;26.90;99.90;;;;;;5029609;28;20032;-85
2022/05/08 09:41:47;;;;;;;3.00;0.82;;;25.20;99.90;;;;;;5034338;28;20025;-85
2022/05/08 09:44:16;;;;;;;8.35;1.50;;;25.00;99.90;;;;;;5035942;28;20022;-85
2022/05/08 09:46:44;;;;;;;5.90;1.20;;;24.20;99.90;;;;;;5038119;28;20063;-85
2022/05/08 09:49:23;;;;;;;8.15;1.63;;;27.90;99.90;;;;;;5033017;28;20053;-85
2022/05/08 09:51:49;;;;;;;6.00;1.00;;;27.50;99.90;;;;;;5030965;28;20026;-85
2022/05/08 09:54:17;;;;;;;1.55;0.88;;;26.90;99.90;;;;;;5018217;28;20040;-85
2022/05/08 09:56:44;;;;;;;3.92;1.33;;;28.20;99.90;;;;;;5021959;28;20021;-86
2022/05/08 09:59:11;;;;;;;3.85;1.00;;;23.10;99.90;;;;;;5039484;28;20071;-85
2022/05/08 10:01:41;;;;;;;4.55;1.00;;;22.70;99.90;;;;;;5033990;28;20028;-85
2022/05/08 10:04:07;;;;;;;2.17;1.23;;;23.50;99.90;;;;;;5031716;28;20045;-85
2022/05/08 10:06:36;;;;;;;3.28;0.98;;;24.90;99.90;;;;;;5033599;28;20104;-85
2022/05/08 10:14:33;;;;;;;7.80;1.30;;;23.60;99.90;;;;;;5029790;28;20061;-86
2022/05/08 10:17:06;;;;;;;3.08;1.15;;;24.00;99.90;;;;;;5012502;28;20440;-86
2022/05/08 10:19:32;;;;;;;7.47;1.42;;;24.10;99.90;;;;;;5030465;28;20030;-84
2022/05/08 10:22:05;;;;;;;4.25;1.20;;;23.90;99.90;;;;;;5030264;28;20022;-84
2022/05/08 10:24:40;;;;;;;4.93;1.40;;;26.70;99.90;;;;;;5047888;28;20086;-85
2022/05/08 10:27:25;;;;;;;5.53;1.38;;;24.50;99.90;;;;;;5051023;28;20036;-84
2022/05/08 10:29:51;;;;;;;5.47;1.27;;;25.60;99.90;;;;;;5053918;28;20025;-84
2022/05/08 10:32:31;;;;;;;5.20;1.10;;;24.50;99.90;;;;;;5053962;28;20103;-85
2022/05/08 10:35:16;;;;;;;4.22;1.33;;;22.30;99.90;;;;;;5053793;28;20130;-84
2022/05/08 10:37:43;;;;;;;4.82;1.27;;;23.50;99.90;;;;;;5049881;28;20017;-84
2022/05/08 10:40:24;;;;;;;3.30;1.00;;;24.10;99.90;;;;;;5033400;28;20395;-85
2022/05/08 10:42:56;;;;;;;3.88;1.00;;;24.80;99.90;;;;;;5038469;28;20645;-85
2022/05/08 10:45:31;;;;;;;4.32;1.08;;;23.90;99.90;;;;;;5035772;28;20044;-84
2022/05/08 10:47:58;;;;;;;4.45;1.17;;;23.30;99.90;;;;;;5037291;28;20021;-85
2022/05/08 10:50:24;;;;;;;6.47;1.33;;;23.60;99.90;;;;;;5053425;28;20479;-85
2022/05/08 10:52:50;;;;;;;2.13;1.23;;;23.60;99.90;;;;;;5054231;28;20032;-84
2022/05/08 10:55:17;;;;;;;3.95;1.15;;;22.80;99.90;;;;;;5053472;28;20483;-84
2022/05/08 10:57:45;;;;;;;3.80;1.08;;;22.70;99.90;;;;;;5018814;28;20032;-85
2022/05/08 11:00:15;;;;;;;2.83;1.30;;;20.00;99.90;;;;;;5028384;28;20022;-85
2022/05/08 11:02:48;;;;;;;5.82;1.35;;;18.90;99.90;;;;;;5052084;28;20040;-85
2022/05/08 11:05:20;;;;;;;7.18;1.63;;;17.00;99.90;;;;;;5053085;28;20025;-85
2022/05/08 11:07:54;;;;;;;7.03;1.60;;;16.90;99.90;;;;;;5051906;28;20112;-85
2022/05/08 11:10:27;;;;;;;6.53;1.50;;;16.40;99.90;;;;;;5042479;28;20087;-85
2022/05/08 11:13:11;;;;;;;4.72;1.33;;;16.30;99.90;;;;;;5015287;28;20025;-86
2022/05/08 11:15:49;;;;;;;4.97;1.35;;;16.20;99.90;;;;;;5032861;28;20076;-86
2022/05/08 11:18:17;;;;;;;6.97;1.60;;;16.00;99.90;;;;;;5033203;28;20034;-85
2022/05/08 11:20:44;;;;;;;5.18;1.13;;;16.00;99.90;;;;;;5041272;28;20013;-87
2022/05/08 11:23:14;;;;;;;4.50;1.13;;;15.60;99.90;;;;;;5054540;28;20021;-84
2022/05/08 11:25:40;;;;;;;6.28;1.48;;;15.80;99.90;;;;;;5037422;28;20067;-85
2022/05/08 11:28:16;;;;;;;5.22;2.03;;;16.10;99.90;;;;;;5037297;28;20029;-86
2022/05/08 11:30:42;;;;;;;7.22;1.13;;;15.60;99.90;;;;;;5055228;28;20033;-85
2022/05/08 11:36:06;;;;;;;4.63;1.55;;;15.40;99.90;;;;;;5055473;28;20039;-85
2022/05/08 11:38:48;;;;;;;7.47;1.48;;;15.70;99.90;;;;;;5054903;28;20025;-85
2022/05/08 11:41:22;;;;;;;2.83;0.88;;;15.90;99.90;;;;;;5037400;28;20039;-81
2022/05/08 11:43:56;;;;;;;3.38;0.90;;;15.80;99.90;;;;;;5054848;28;20041;-79
2022/05/08 11:46:45;;;;;;;6.07;1.40;;;15.50;99.90;;;;;;5055224;28;20045;-81
2022/05/08 11:49:24;;;;;;;3.08;0.95;;;15.50;99.90;;;;;;5055046;28;20032;-81
2022/05/08 11:52:01;;;;;;;4.63;1.52;;;15.40;99.90;;;;;;5036181;28;20033;-80
2022/05/08 11:54:35;;;;;;;5.90;1.10;;;15.00;99.90;;;;;;5047467;28;20515;-80
2022/05/08 11:57:16;;;;;;;5.07;1.58;;;15.70;99.90;;;;;;5032440;28;20112;-81
2022/05/08 11:59:46;;;;;;;6.47;1.15;;;15.20;99.90;;;;;;5046781;28;20025;-81
2022/05/08 12:02:12;;;;;;;6.15;1.38;;;15.60;99.90;;;;;;5047503;28;20377;-81
2022/05/08 12:04:38;;;;;;;3.53;1.10;;;15.20;99.90;;;;;;5031724;28;20570;-81
2022/05/08 12:07:12;;;;;;;1.98;0.80;;;15.50;99.90;;;;;;5032135;28;20025;-81
2022/05/08 12:09:43;;;;;;;2.83;1.10;;;14.90;99.90;;;;;;5053765;28;20024;-82
2022/05/08 12:12:25;;;;;;;3.72;1.10;;;15.30;99.90;;;;;;5047894;28;20020;-82
2022/05/08 12:15:21;;;;;;;3.10;1.23;;;15.50;99.90;;;;;;5034757;28;20084;-82
2022/05/08 12:17:58;;;;;;;5.22;1.30;;;15.50;99.90;;;;;;5050534;28;20090;-82
2022/05/08 12:20:32;;;;;;;5.53;0.90;;;15.20;99.90;;;;;;5036096;28;20029;-81
2022/05/08 12:22:59;;;;;;;7.03;1.38;;;15.10;99.90;;;;;;5054180;28;20029;-81
2022/05/08 12:25:24;;;;;;;4.43;1.05;;;15.50;99.90;;;;;;5053922;28;20029;-81
2022/05/08 12:27:50;;;;;;;4.78;1.20;;;15.60;99.90;;;;;;5054563;28;20032;-82
2022/05/08 12:30:16;;;;;;;6.38;1.10;;;15.20;99.90;;;;;;5054048;28;20035;-82
2022/05/08 12:32:42;;;;;;;5.32;1.30;;;15.50;99.90;;;;;;5052830;28;20025;-82
2022/05/08 12:35:11;;;;;;;2.88;0.90;;;15.50;99.90;;;;;;5054289;28;20067;-82
2022/05/08 12:37:39;;;;;;;5.22;1.25;;;15.70;99.90;;;;;;5053954;28;20044;-82
2022/05/08 12:40:06;;;;;;;3.67;1.15;;;15.70;99.90;;;;;;5053402;28;20384;-80
2022/05/08 12:42:32;;;;;;;5.78;1.35;;;15.60;99.90;;;;;;5036584;28;20043;-81
2022/05/08 12:44:57;;;;;;;7.32;1.75;;;15.70;99.90;;;;;;5056973;28;20484;-82
2022/05/08 12:47:23;;;;;;;3.35;1.08;;;15.50;99.90;;;;;;5057741;28;20040;-81
2022/05/08 12:49:49;;;;;;;6.05;1.20;;;15.20;99.90;;;;;;5053246;28;20021;-81
2022/05/08 12:52:16;;;;;;;4.03;1.20;;;15.50;99.90;;;;;;5052253;28;20104;-82
2022/05/08 12:54:41;;;;;;;4.20;1.63;;;15.10;99.90;;;;;;5053465;28;20038;-81
2022/05/08 12:57:09;;;;;;;10.55;1.70;;;15.10;99.90;;;;;;5053535;28;20024;-81
2022/05/08 12:59:47;;;;;;;7.53;1.65;;;15.40;99.90;;;;;;5053470;28;20567;-82
2022/05/08 13:02:19;;;;;;;9.65;1.77;;;15.50;99.90;;;;;;5053683;28;20074;-82
2022/05/08 13:04:46;;;;;;;5.93;1.50;;;15.20;99.90;;;;;;5053657;28;20055;-81
2022/05/08 13:07:12;;;;;;;5.97;1.90;;;15.30;99.90;;;;;;5035537;28;20025;-79
2022/05/08 13:09:39;;;;;;;7.68;1.30;;;15.20;99.90;;;;;;5053643;28;20029;-79
2022/05/08 13:12:06;;;;;;;4.15;1.45;;;15.50;99.90;;;;;;5053439;28;20456;-79
2022/05/08 13:14:32;;;;;;;3.63;0.95;;;15.90;99.90;;;;;;5053388;28;20118;-79
2022/05/08 13:16:59;;;;;;;5.40;1.23;;;15.60;99.90;;;;;;5047035;28;20096;-78
2022/05/08 13:19:27;;;;;;;3.47;1.20;;;15.30;99.90;;;;;;5033453;28;20033;-79
2022/05/08 13:21:53;;;;;;;2.95;1.42;;;14.90;99.90;;;;;;5033545;28;20045;-79
2022/05/08 13:24:19;;;;;;;4.68;1.80;;;15.20;99.90;;;;;;5036749;28;20472;-78